Time;durP1;ratioP1;P1;durP2;ratioP2;P2;SDS_P1;SDS_P2;PMS_P1;PMS_P2;Temp;Humidity;BMP_temperature;BMP_pressure;BME280_temperature;BME280_humidity;BME280_pressure;Samples;Min_cycle;Max_cycle;Signal;HPM_P1;HPM_P2
2021/11/02 00:01:40;;;;;;;15.13;6.80;;;9.10;99.90;;;;;;5066256;28;20160;-65
2021/11/02 00:04:06;;;;;;;12.33;6.13;;;9.00;99.90;;;;;;5066164;28;20165;-65
2021/11/02 00:06:35;;;;;;;17.80;7.53;;;9.00;99.90;;;;;;5066309;28;20248;-65
2021/11/02 00:09:01;;;;;;;18.63;7.27;;;9.00;99.90;;;;;;5065961;28;20575;-65
2021/11/02 00:11:27;;;;;;;14.53;7.07;;;8.90;99.90;;;;;;5065934;28;20240;-65
2021/11/02 00:13:55;;;;;;;16.80;7.40;;;9.00;99.90;;;;;;5065891;28;20179;-65
2021/11/02 00:16:22;;;;;;;16.83;8.07;;;8.90;99.90;;;;;;5066016;28;20167;-64
2021/11/02 00:18:58;;;;;;;14.40;8.40;;;8.90;99.90;;;;;;5065811;28;20218;-65
2021/11/02 00:21:24;;;;;;;17.93;7.80;;;8.80;99.90;;;;;;5066121;28;20141;-65
2021/11/02 00:23:57;;;;;;;18.77;8.40;;;8.90;99.90;;;;;;5064642;28;20202;-65
2021/11/02 00:26:23;;;;;;;15.83;7.80;;;8.90;99.90;;;;;;5065849;28;20149;-65
2021/11/02 00:28:49;;;;;;;21.80;9.40;;;8.90;99.90;;;;;;5065339;28;20183;-65
2021/11/02 00:31:15;;;;;;;16.33;8.57;;;8.90;99.90;;;;;;5066036;28;20167;-65
2021/11/02 00:33:40;;;;;;;19.07;8.63;;;8.80;99.90;;;;;;5065918;28;20169;-65
2021/11/02 00:36:06;;;;;;;17.50;9.33;;;8.90;99.90;;;;;;5064600;28;20255;-65
2021/11/02 00:38:31;;;;;;;16.43;8.77;;;9.00;99.90;;;;;;5065427;28;20165;-65
2021/11/02 00:40:57;;;;;;;20.20;9.33;;;8.90;99.90;;;;;;5065733;28;20157;-65
2021/11/02 00:43:25;;;;;;;19.20;9.43;;;9.00;99.90;;;;;;5065526;28;20198;-65
2021/11/02 00:45:50;;;;;;;13.90;7.13;;;8.70;99.90;;;;;;5065859;28;20626;-66
2021/11/02 00:48:23;;;;;;;15.20;8.33;;;8.60;99.90;;;;;;5065502;28;20173;-65
2021/11/02 00:50:49;;;;;;;18.40;7.63;;;8.60;99.90;;;;;;5065949;28;20150;-65
2021/11/02 00:53:15;;;;;;;19.93;8.50;;;8.70;99.90;;;;;;5065855;28;20206;-65
2021/11/02 00:55:41;;;;;;;15.57;8.37;;;8.60;99.90;;;;;;5065970;28;20165;-65
2021/11/02 00:58:07;;;;;;;14.80;7.33;;;8.60;99.90;;;;;;5065233;28;20165;-65
2021/11/02 01:00:37;;;;;;;16.17;8.27;;;8.50;99.90;;;;;;5069428;28;20157;-65
2021/11/02 01:03:04;;;;;;;16.10;7.33;;;8.70;99.90;;;;;;5069393;28;20210;-65
2021/11/02 01:05:30;;;;;;;12.80;7.73;;;8.90;99.90;;;;;;5069392;28;20168;-65
2021/11/02 01:07:56;;;;;;;14.43;7.90;;;8.90;99.90;;;;;;5068687;28;20176;-65
2021/11/02 01:10:22;;;;;;;14.73;7.83;;;9.00;99.90;;;;;;5069427;28;20220;-65
2021/11/02 01:12:49;;;;;;;19.10;8.00;;;9.00;99.90;;;;;;5068668;28;20223;-65
2021/11/02 01:15:18;;;;;;;20.77;8.10;;;9.10;99.90;;;;;;5067981;28;20375;-65
2021/11/02 01:17:44;;;;;;;13.17;7.63;;;9.10;99.90;;;;;;5068989;28;20208;-65
2021/11/02 01:20:12;;;;;;;12.40;7.43;;;9.00;99.90;;;;;;5069092;28;20161;-66
2021/11/02 01:22:39;;;;;;;16.50;8.40;;;8.80;99.90;;;;;;5069105;28;20165;-65
2021/11/02 01:25:06;;;;;;;13.27;7.80;;;8.90;99.90;;;;;;5069077;28;20161;-65
2021/11/02 01:27:32;;;;;;;18.17;7.60;;;8.90;99.90;;;;;;5068517;28;20198;-65
2021/11/02 01:29:58;;;;;;;10.80;7.37;;;9.00;99.90;;;;;;5068875;28;20518;-66
2021/11/02 01:32:24;;;;;;;15.77;7.90;;;8.90;99.90;;;;;;5068726;28;20187;-65
2021/11/02 01:34:50;;;;;;;15.37;8.20;;;9.00;99.90;;;;;;5068786;28;20240;-65
2021/11/02 01:37:16;;;;;;;10.87;6.70;;;8.90;99.90;;;;;;5068712;28;20165;-65
2021/11/02 01:39:41;;;;;;;12.67;7.20;;;8.90;99.90;;;;;;5068751;28;20149;-65
2021/11/02 01:42:07;;;;;;;10.13;6.80;;;8.90;99.90;;;;;;5068326;28;20728;-65
2021/11/02 01:44:33;;;;;;;13.93;8.37;;;8.70;99.90;;;;;;5067432;28;20230;-65
2021/11/02 01:46:59;;;;;;;12.40;6.87;;;8.70;99.90;;;;;;5067269;28;20168;-65
2021/11/02 01:49:25;;;;;;;13.53;7.03;;;8.80;99.90;;;;;;5068289;28;20645;-65
2021/11/02 01:51:50;;;;;;;9.73;5.97;;;8.90;99.90;;;;;;5068720;28;20188;-65
2021/11/02 01:54:18;;;;;;;10.43;6.60;;;8.90;99.90;;;;;;5067213;28;20153;-65
2021/11/02 01:56:48;;;;;;;10.13;6.63;;;8.90;99.90;;;;;;5067023;28;20237;-65
2021/11/02 01:59:14;;;;;;;8.70;7.17;;;8.90;99.90;;;;;;5066639;28;20168;-65
2021/11/02 02:02:00;;;;;;;13.73;7.00;;;9.00;99.90;;;;;;5066868;28;20180;-65
2021/11/02 02:05:04;;;;;;;10.10;6.80;;;9.20;99.90;;;;;;5068161;28;20180;-65
2021/11/02 02:07:57;;;;;;;8.63;6.33;;;9.20;99.90;;;;;;5066837;28;20260;-65
2021/11/02 02:10:45;;;;;;;11.60;6.23;;;9.10;99.90;;;;;;5068248;28;20172;-65
2021/11/02 02:13:26;;;;;;;12.60;7.40;;;8.80;99.90;;;;;;5066332;28;20221;-65
2021/11/02 02:16:01;;;;;;;12.80;6.60;;;9.10;99.90;;;;;;5068231;28;20198;-65
2021/11/02 02:18:43;;;;;;;13.40;6.47;;;9.20;99.90;;;;;;5067685;28;20171;-65
2021/11/02 02:21:35;;;;;;;11.10;7.30;;;9.10;99.90;;;;;;5066840;28;20187;-65
2021/11/02 02:24:50;;;;;;;11.03;6.50;;;9.00;99.90;;;;;;5067911;28;20161;-65
2021/11/02 02:27:58;;;;;;;9.17;6.53;;;9.00;99.90;;;;;;5062423;28;20202;-65
2021/11/02 02:30:23;;;;;;;13.43;7.37;;;9.20;99.90;;;;;;5045658;28;20178;-65
2021/11/02 02:32:52;;;;;;;13.07;7.30;;;9.20;99.90;;;;;;5045350;28;20290;-65
2021/11/02 02:35:19;;;;;;;11.53;6.90;;;9.30;99.90;;;;;;5045585;28;20169;-65
2021/11/02 02:37:47;;;;;;;13.37;8.40;;;9.30;99.90;;;;;;5045270;28;20201;-65
2021/11/02 02:40:14;;;;;;;11.23;7.60;;;9.30;99.90;;;;;;5045507;28;20211;-65
2021/11/02 02:42:43;;;;;;;11.67;8.07;;;9.20;99.90;;;;;;5044970;28;20190;-65
2021/11/02 02:45:13;;;;;;;12.30;7.90;;;9.30;99.90;;;;;;5045420;28;20173;-65
2021/11/02 02:47:41;;;;;;;13.87;8.83;;;9.20;99.90;;;;;;5045209;28;20189;-65
2021/11/02 02:50:08;;;;;;;12.03;8.23;;;9.20;99.90;;;;;;5045455;28;20173;-65
2021/11/02 02:52:35;;;;;;;12.00;9.43;;;9.20;99.90;;;;;;5044952;28;20220;-65
2021/11/02 02:55:03;;;;;;;14.97;9.43;;;9.10;99.90;;;;;;5045236;28;20220;-65
2021/11/02 02:57:29;;;;;;;11.70;8.90;;;9.10;99.90;;;;;;5044744;28;20177;-65
2021/11/02 02:59:56;;;;;;;14.33;10.07;;;9.10;99.90;;;;;;5045124;28;20625;-66
2021/11/02 03:02:26;;;;;;;16.30;9.43;;;9.20;99.90;;;;;;5045232;28;20189;-65
2021/11/02 03:04:54;;;;;;;10.77;9.10;;;9.10;99.90;;;;;;5045230;28;20284;-65
2021/11/02 03:07:23;;;;;;;12.50;9.07;;;9.10;99.90;;;;;;5055807;28;20238;-65
2021/11/02 03:09:50;;;;;;;18.33;10.00;;;9.10;99.90;;;;;;5066956;28;20236;-65
2021/11/02 03:12:25;;;;;;;14.40;9.97;;;9.10;99.90;;;;;;5066154;28;20228;-65
2021/11/02 03:15:24;;;;;;;13.53;10.27;;;9.00;99.90;;;;;;5065668;28;20171;-65
2021/11/02 03:18:22;;;;;;;15.20;9.77;;;8.90;99.90;;;;;;5066655;28;20168;-65
2021/11/02 05:58:30;;;;;;;13.07;7.80;;;9.80;99.90;;;;;;5067920;28;20172;-65
2021/11/02 06:06:22;;;;;;;12.40;8.33;;;9.80;99.90;;;;;;5068427;28;20148;-65
2021/11/02 06:28:49;;;;;;;15.20;9.13;;;10.00;99.90;;;;;;5067352;28;20215;-65
2021/11/02 06:31:20;;;;;;;12.20;8.77;;;9.80;99.90;;;;;;5066570;28;20164;-65
2021/11/02 06:34:06;;;;;;;10.73;8.37;;;9.90;99.90;;;;;;5067414;28;20196;-65
2021/11/02 07:15:47;;;;;;;12.40;8.50;;;10.10;99.90;;;;;;5067251;28;20160;-66
2021/11/02 07:20:44;;;;;;;12.97;9.60;;;10.50;99.90;;;;;;5066759;28;20172;-66
2021/11/02 07:28:25;;;;;;;9.67;8.10;;;10.20;99.90;;;;;;5066507;28;20252;-66
2021/11/02 08:47:00;;;;;;;12.57;6.73;;;10.40;99.90;;;;;;5065670;28;20228;-66
2021/11/02 08:49:26;;;;;;;10.13;6.03;;;10.40;99.90;;;;;;5063882;28;20733;-66
2021/11/02 08:51:57;;;;;;;7.23;5.90;;;10.20;99.90;;;;;;5065348;28;20177;-66
2021/11/02 08:54:24;;;;;;;12.77;7.50;;;10.40;99.90;;;;;;5063661;28;20160;-66
2021/11/02 08:56:52;;;;;;;10.77;6.00;;;10.40;99.90;;;;;;5065544;28;20157;-65
2021/11/02 08:59:18;;;;;;;9.47;5.93;;;10.30;99.90;;;;;;5064866;28;20252;-65
2021/11/02 09:01:52;;;;;;;7.57;4.87;;;10.20;99.90;;;;;;5065513;28;20165;-65
2021/11/02 09:04:20;;;;;;;5.80;4.75;;;10.20;99.90;;;;;;5065337;28;20160;-65
2021/11/02 09:06:50;;;;;;;5.37;4.83;;;10.60;99.90;;;;;;5065464;28;20157;-66
2021/11/02 09:09:18;;;;;;;7.47;5.28;;;10.80;99.90;;;;;;5064469;28;20165;-65
2021/11/02 09:11:45;;;;;;;9.68;5.18;;;10.70;99.90;;;;;;5065089;28;20216;-65
2021/11/02 09:14:15;;;;;;;6.13;5.25;;;10.60;99.90;;;;;;5065078;28;20171;-65
2021/11/02 09:16:46;;;;;;;5.65;5.05;;;10.40;99.90;;;;;;5065430;28;20556;-65
2021/11/02 09:19:13;;;;;;;7.65;5.88;;;10.50;99.90;;;;;;5065131;28;20172;-66
2021/11/02 09:21:39;;;;;;;6.72;6.07;;;10.50;99.90;;;;;;5067716;28;20580;-66
2021/11/02 09:24:06;;;;;;;10.80;5.50;;;10.40;99.90;;;;;;5067572;28;20229;-66
2021/11/02 09:26:33;;;;;;;5.90;4.82;;;10.60;99.90;;;;;;5068917;28;20192;-66
2021/11/02 09:29:04;;;;;;;6.70;5.47;;;10.50;99.90;;;;;;5068045;28;20172;-65
2021/11/02 09:31:32;;;;;;;7.53;6.20;;;10.40;99.90;;;;;;5068726;28;20153;-65
2021/11/02 09:33:58;;;;;;;7.63;5.22;;;10.50;99.90;;;;;;5068277;28;20153;-65
2021/11/02 09:36:27;;;;;;;7.07;5.78;;;10.70;99.90;;;;;;5068737;28;20160;-65
2021/11/02 09:39:01;;;;;;;6.18;5.43;;;10.70;99.90;;;;;;5068214;28;20630;-65
2021/11/02 09:41:48;;;;;;;6.33;5.70;;;10.60;99.90;;;;;;5068712;28;20153;-65
2021/11/02 09:44:22;;;;;;;9.40;6.33;;;10.60;99.90;;;;;;5067966;28;20176;-65
2021/11/02 09:47:33;;;;;;;7.17;6.37;;;10.40;99.90;;;;;;5068481;28;20144;-66
2021/11/02 09:50:16;;;;;;;9.17;6.07;;;10.10;99.90;;;;;;5062858;28;20196;-65
2021/11/02 09:53:06;;;;;;;8.60;6.07;;;10.00;99.90;;;;;;5067945;28;20192;-65
2021/11/02 09:55:57;;;;;;;7.03;6.33;;;10.10;99.90;;;;;;5068141;28;20539;-66
2021/11/02 09:59:00;;;;;;;6.73;6.13;;;10.30;99.90;;;;;;5067719;28;20173;-66
2021/11/02 10:01:32;;;;;;;7.10;6.40;;;10.30;99.90;;;;;;5068127;28;20259;-65
2021/11/02 10:04:06;;;;;;;8.48;6.25;;;10.40;99.90;;;;;;5068006;28;20630;-65
2021/11/02 10:06:49;;;;;;;7.33;6.67;;;10.40;99.90;;;;;;5067109;28;20207;-65
2021/11/02 10:09:58;;;;;;;7.30;6.50;;;10.70;99.90;;;;;;5067878;28;20225;-65
2021/11/02 10:13:02;;;;;;;10.90;7.65;;;10.80;99.90;;;;;;5064364;28;20212;-65
2021/11/02 10:15:54;;;;;;;9.77;8.77;;;10.60;99.90;;;;;;5056029;28;20176;-65
2021/11/02 10:18:51;;;;;;;12.37;9.30;;;10.40;99.90;;;;;;5067512;28;20628;-65
2021/11/02 10:21:35;;;;;;;8.53;7.73;;;10.40;99.90;;;;;;5067830;28;20169;-65
2021/11/02 10:24:38;;;;;;;9.00;8.20;;;10.30;99.90;;;;;;5067711;28;20543;-65
2021/11/02 10:27:41;;;;;;;11.93;8.67;;;10.50;99.90;;;;;;5067895;28;20153;-65
2021/11/02 10:30:44;;;;;;;8.83;7.93;;;10.50;99.90;;;;;;5067470;28;20232;-65
2021/11/02 10:33:21;;;;;;;11.50;8.03;;;10.50;99.90;;;;;;5067331;28;20200;-65
2021/11/02 10:36:18;;;;;;;9.10;7.50;;;10.40;99.90;;;;;;5066435;28;20176;-65
2021/11/02 10:38:58;;;;;;;9.73;7.93;;;10.20;99.90;;;;;;5067184;28;20188;-65
2021/11/02 10:41:42;;;;;;;7.80;7.07;;;10.30;99.90;;;;;;5066265;28;20203;-65
2021/11/02 10:44:24;;;;;;;8.32;7.53;;;10.20;99.90;;;;;;5066810;28;20184;-65
2021/11/02 10:47:04;;;;;;;7.47;6.67;;;10.30;99.90;;;;;;5066147;28;20157;-65
2021/11/02 10:49:36;;;;;;;8.13;7.43;;;10.30;99.90;;;;;;5066860;28;20168;-65
2021/11/02 10:52:07;;;;;;;8.38;5.93;;;10.30;99.90;;;;;;5067023;28;20184;-65
2021/11/02 10:54:49;;;;;;;5.55;5.05;;;10.40;99.90;;;;;;5066981;28;20188;-66
2021/11/02 10:57:21;;;;;;;6.80;5.07;;;10.50;99.90;;;;;;5067177;28;20149;-65
2021/11/02 10:59:47;;;;;;;5.32;4.93;;;10.40;99.90;;;;;;5066283;28;20684;-65
2021/11/02 11:02:30;;;;;;;5.55;5.07;;;10.40;99.90;;;;;;5066829;28;20168;-64
2021/11/02 11:04:58;;;;;;;8.63;5.15;;;10.50;99.90;;;;;;5066884;28;20232;-65
2021/11/02 11:07:42;;;;;;;6.70;5.70;;;10.50;99.90;;;;;;5066927;28;20237;-66
2021/11/02 11:10:10;;;;;;;5.63;5.13;;;10.70;99.90;;;;;;5066068;28;20176;-65
2021/11/02 11:12:44;;;;;;;4.82;4.43;;;10.90;99.90;;;;;;5064576;28;20622;-65
2021/11/02 11:15:09;;;;;;;5.82;4.97;;;10.90;99.90;;;;;;5065199;28;20193;-65
2021/11/02 11:17:35;;;;;;;5.33;4.77;;;10.70;99.90;;;;;;5066195;28;20180;-65
2021/11/02 11:20:13;;;;;;;6.78;4.57;;;10.50;99.90;;;;;;5066356;28;20169;-65
2021/11/02 11:22:44;;;;;;;6.63;5.47;;;10.60;99.90;;;;;;5066374;28;20164;-65
2021/11/02 11:25:14;;;;;;;5.53;5.03;;;10.60;99.90;;;;;;5066302;28;20173;-65
2021/11/02 11:27:56;;;;;;;4.85;4.35;;;10.70;99.90;;;;;;5065970;28;20173;-65
2021/11/02 11:30:27;;;;;;;18.90;9.55;;;10.60;99.90;;;;;;5064888;28;20596;-65
2021/11/02 11:32:53;;;;;;;4.40;4.00;;;10.80;99.90;;;;;;5065460;28;20435;-65
2021/11/02 11:35:20;;;;;;;4.05;3.65;;;10.90;99.90;;;;;;5066094;28;20259;-65
2021/11/02 11:37:48;;;;;;;4.55;3.78;;;11.10;99.90;;;;;;5066189;28;20168;-65
2021/11/02 11:40:18;;;;;;;3.90;3.50;;;11.20;99.90;;;;;;5066049;28;20157;-65
2021/11/02 11:42:50;;;;;;;3.50;3.20;;;11.10;99.90;;;;;;5064989;28;20407;-65
2021/11/02 11:45:23;;;;;;;3.58;3.15;;;11.10;99.90;;;;;;5064616;28;20176;-65
2021/11/02 11:48:07;;;;;;;8.70;3.00;;;11.00;99.90;;;;;;5065751;28;20198;-65
2021/11/02 11:50:37;;;;;;;3.00;2.80;;;11.00;99.90;;;;;;5065501;28;20653;-65
2021/11/02 11:53:04;;;;;;;9.20;2.70;;;11.00;99.90;;;;;;5065616;28;20184;-65
2021/11/02 11:55:40;;;;;;;2.88;2.08;;;11.00;99.90;;;;;;5065452;28;20439;-65
2021/11/02 11:58:07;;;;;;;2.17;2.00;;;11.00;99.90;;;;;;5065070;28;20168;-65
2021/11/02 12:00:35;;;;;;;1.98;1.77;;;10.90;99.90;;;;;;5065343;28;20165;-65
2021/11/02 12:03:05;;;;;;;1.88;1.77;;;10.90;99.90;;;;;;5065526;28;20169;-65
2021/11/02 12:05:32;;;;;;;2.42;2.22;;;10.80;99.90;;;;;;5065363;28;20180;-65
2021/11/02 12:08:08;;;;;;;1.58;1.48;;;10.80;99.90;;;;;;5065663;28;20187;-65
2021/11/02 12:10:37;;;;;;;3.50;2.10;;;10.90;99.90;;;;;;5065387;28;20645;-65
2021/11/02 12:13:08;;;;;;;3.17;1.90;;;10.90;99.90;;;;;;5065117;28;20216;-65
2021/11/02 12:15:37;;;;;;;3.28;2.17;;;10.80;99.90;;;;;;5064124;28;20240;-65
2021/11/02 12:18:06;;;;;;;2.95;2.25;;;10.90;99.90;;;;;;5065388;28;20222;-65
2021/11/02 12:20:32;;;;;;;5.75;2.75;;;10.90;99.90;;;;;;5065165;28;20179;-65
2021/11/02 12:23:11;;;;;;;5.38;2.75;;;10.90;99.90;;;;;;5064301;28;20187;-65
2021/11/02 12:25:48;;;;;;;3.72;2.72;;;11.00;99.90;;;;;;5065325;28;20185;-65
2021/11/02 12:28:28;;;;;;;5.25;3.70;;;11.10;99.90;;;;;;5047165;28;20180;-65
2021/11/02 12:30:59;;;;;;;4.15;3.40;;;11.00;99.90;;;;;;5065535;28;20184;-65
2021/11/02 12:33:27;;;;;;;4.88;3.60;;;10.90;99.90;;;;;;5063864;28;20192;-65
2021/11/02 12:35:54;;;;;;;4.75;3.92;;;11.10;99.90;;;;;;5065298;28;20165;-65
2021/11/02 12:38:42;;;;;;;4.80;4.35;;;11.20;99.90;;;;;;5065332;28;20295;-65
2021/11/02 12:41:20;;;;;;;5.03;4.07;;;11.50;99.90;;;;;;5065608;28;20156;-65
2021/11/02 12:44:00;;;;;;;5.82;4.95;;;11.50;99.90;;;;;;5065305;28;20173;-65
2021/11/02 12:46:28;;;;;;;5.65;4.90;;;11.40;99.90;;;;;;5065685;28;20181;-65
2021/11/02 12:48:54;;;;;;;9.20;5.20;;;11.50;99.90;;;;;;5065361;28;20172;-65
2021/11/02 12:51:25;;;;;;;7.43;5.03;;;11.60;99.90;;;;;;5065375;28;20186;-65
2021/11/02 12:53:56;;;;;;;7.18;5.43;;;11.90;99.90;;;;;;5064344;28;20185;-65
2021/11/02 12:56:23;;;;;;;8.30;5.00;;;11.90;99.90;;;;;;5071874;28;20149;-65
2021/11/02 12:59:01;;;;;;;16.23;5.75;;;11.90;99.90;;;;;;5069700;28;20168;-65
2021/11/02 13:01:35;;;;;;;8.82;5.90;;;11.90;99.90;;;;;;5069279;28;20671;-65
2021/11/02 13:04:12;;;;;;;7.20;5.00;;;12.00;99.90;;;;;;5067798;28;20186;-65
2021/11/02 13:06:58;;;;;;;6.05;5.18;;;12.00;99.90;;;;;;5069260;28;20160;-65
2021/11/02 13:09:34;;;;;;;7.95;5.68;;;12.00;99.90;;;;;;5068576;28;20198;-65
2021/11/02 13:12:09;;;;;;;6.13;5.05;;;12.00;99.90;;;;;;5068365;28;20212;-65
2021/11/02 13:14:44;;;;;;;7.90;5.65;;;12.00;99.90;;;;;;5068684;28;20200;-65
2021/11/02 13:17:11;;;;;;;7.78;5.22;;;12.00;99.90;;;;;;5069111;28;20541;-65
2021/11/02 13:19:43;;;;;;;6.93;5.72;;;11.90;99.90;;;;;;5068843;28;20183;-65
2021/11/02 13:22:23;;;;;;;7.70;5.97;;;12.30;99.90;;;;;;5067760;28;20157;-65
2021/11/02 13:24:59;;;;;;;8.32;5.72;;;12.60;99.90;;;;;;5068905;28;20184;-65
2021/11/02 13:27:41;;;;;;;8.10;5.28;;;12.40;99.90;;;;;;5069089;28;20165;-65
2021/11/02 13:30:34;;;;;;;6.03;5.32;;;12.80;99.90;;;;;;5068404;28;20187;-65
2021/11/02 13:33:01;;;;;;;6.95;4.95;;;12.80;99.90;;;;;;5068897;28;20468;-65
2021/11/02 13:35:57;;;;;;;7.13;5.10;;;12.60;99.90;;;;;;5068631;28;20171;-65
2021/11/02 13:38:34;;;;;;;5.93;5.28;;;13.00;99.90;;;;;;5063985;28;20238;-63
2021/11/02 13:41:24;;;;;;;7.47;4.93;;;13.20;99.90;;;;;;5068431;28;20196;-65
2021/11/02 13:44:00;;;;;;;7.30;5.25;;;13.10;99.90;;;;;;5066171;28;20176;-65
2021/11/02 13:46:31;;;;;;;6.85;4.72;;;13.10;99.90;;;;;;5068003;28;20163;-63
2021/11/02 13:48:58;;;;;;;6.97;4.68;;;13.10;99.90;;;;;;5066681;28;20165;-63
2021/11/02 13:51:24;;;;;;;6.22;4.68;;;12.90;99.90;;;;;;5068025;28;20156;-63
2021/11/02 13:53:51;;;;;;;5.93;4.95;;;12.70;99.90;;;;;;5068203;28;20268;-64
2021/11/02 13:56:22;;;;;;;5.85;5.07;;;12.40;99.90;;;;;;5068226;28;20171;-64
2021/11/02 13:58:48;;;;;;;7.50;5.45;;;12.30;99.90;;;;;;5067735;28;20168;-63
2021/11/02 14:01:20;;;;;;;11.18;5.45;;;12.30;99.90;;;;;;5068077;28;20175;-63
2021/11/02 14:04:10;;;;;;;7.38;5.95;;;12.40;99.90;;;;;;5068240;28;20247;-64
2021/11/02 14:06:39;;;;;;;7.97;5.78;;;12.60;99.90;;;;;;5064477;28;20180;-65
2021/11/02 14:09:13;;;;;;;5.45;4.95;;;12.90;99.90;;;;;;5067788;28;20165;-65
2021/11/02 14:11:39;;;;;;;9.50;5.82;;;13.50;99.90;;;;;;5067724;28;20288;-65
2021/11/02 14:14:27;;;;;;;6.55;5.50;;;14.00;99.90;;;;;;5067455;28;20198;-65
2021/11/02 14:16:53;;;;;;;7.22;5.60;;;14.20;99.90;;;;;;5068036;28;20184;-65
2021/11/02 14:19:34;;;;;;;5.35;4.85;;;14.40;99.90;;;;;;5066571;28;20160;-65
2021/11/02 14:22:07;;;;;;;6.30;5.03;;;14.70;99.90;;;;;;5068019;28;20184;-65
2021/11/02 14:24:42;;;;;;;6.13;5.22;;;14.90;99.90;;;;;;5067760;28;20220;-65
2021/11/02 14:27:20;;;;;;;6.20;5.60;;;15.00;99.90;;;;;;5067889;28;20192;-65
2021/11/02 14:29:48;;;;;;;9.13;6.35;;;15.00;99.90;;;;;;5066777;28;20222;-65
2021/11/02 14:32:33;;;;;;;7.63;5.93;;;15.00;99.90;;;;;;5067627;28;20247;-65
2021/11/02 14:34:58;;;;;;;10.73;6.45;;;14.70;99.90;;;;;;5067557;28;20165;-65
2021/11/02 14:37:25;;;;;;;7.60;6.32;;;14.50;99.90;;;;;;5067639;28;20225;-65
2021/11/02 14:40:06;;;;;;;8.13;6.30;;;14.50;99.90;;;;;;5067141;28;20168;-65
2021/11/02 14:42:49;;;;;;;9.23;6.20;;;14.50;99.90;;;;;;5067749;28;20172;-65
2021/11/02 14:45:20;;;;;;;6.30;5.75;;;14.60;99.90;;;;;;5067421;28;20175;-65
2021/11/02 14:47:47;;;;;;;6.38;5.60;;;14.50;99.90;;;;;;5067444;28;20164;-65
2021/11/02 14:50:46;;;;;;;10.57;5.60;;;14.10;99.90;;;;;;5067075;28;20169;-65
2021/11/02 14:53:32;;;;;;;9.98;5.20;;;14.10;99.90;;;;;;5067018;28;20189;-65
2021/11/02 14:56:06;;;;;;;7.80;5.57;;;14.10;99.90;;;;;;5067148;28;20245;-63
2021/11/02 14:58:42;;;;;;;6.50;5.75;;;14.00;99.90;;;;;;5066763;28;20251;-65
2021/11/02 15:01:29;;;;;;;9.48;5.55;;;13.90;99.90;;;;;;5066857;28;20259;-66
2021/11/02 15:03:57;;;;;;;10.15;5.78;;;14.20;99.90;;;;;;5067188;28;20259;-65
2021/11/02 15:06:34;;;;;;;11.50;6.47;;;14.40;99.90;;;;;;5066987;28;20165;-66
2021/11/02 15:09:04;;;;;;;7.13;5.22;;;14.60;99.90;;;;;;5066510;28;20187;-65
2021/11/02 15:11:30;;;;;;;7.50;5.70;;;14.40;99.90;;;;;;5066353;28;20205;-65
2021/11/02 15:13:59;;;;;;;11.80;6.03;;;14.40;99.90;;;;;;5066329;28;20216;-66
2021/11/02 15:16:26;;;;;;;7.45;5.68;;;14.70;99.90;;;;;;5066829;28;20176;-66
2021/11/02 15:19:04;;;;;;;6.60;5.07;;;15.10;99.90;;;;;;5064727;28;20165;-65
2021/11/02 15:21:35;;;;;;;7.90;5.05;;;15.40;99.90;;;;;;5066856;28;20156;-66
2021/11/02 15:24:22;;;;;;;10.20;5.13;;;15.30;99.90;;;;;;5066743;28;20156;-66
2021/11/02 15:26:53;;;;;;;8.55;5.13;;;15.20;99.90;;;;;;5044759;28;20215;-66
2021/11/02 15:29:21;;;;;;;6.85;4.78;;;15.10;99.90;;;;;;5066091;28;20183;-66
2021/11/02 15:31:55;;;;;;;9.02;7.45;;;14.50;99.90;;;;;;5066339;28;20179;-66
2021/11/02 15:34:21;;;;;;;8.63;5.35;;;14.20;99.90;;;;;;5066533;28;20160;-66
2021/11/02 15:36:46;;;;;;;11.10;5.30;;;14.10;99.90;;;;;;5066689;28;20187;-66
2021/11/02 15:39:12;;;;;;;12.32;5.03;;;14.10;99.90;;;;;;5064924;28;20180;-66
2021/11/02 15:41:38;;;;;;;8.10;6.07;;;13.90;99.90;;;;;;5065179;28;20200;-65
2021/11/02 15:44:09;;;;;;;7.05;5.80;;;13.70;99.90;;;;;;5065755;28;20173;-66
2021/11/02 15:46:41;;;;;;;13.95;5.93;;;13.50;99.90;;;;;;5066412;28;20145;-65
2021/11/02 15:49:10;;;;;;;13.63;8.75;;;13.20;99.90;;;;;;5065892;28;20191;-66
2021/11/02 15:51:51;;;;;;;11.20;5.60;;;13.10;99.90;;;;;;5065951;28;20168;-66
2021/11/02 15:54:19;;;;;;;8.50;5.75;;;12.90;99.90;;;;;;5064552;28;20186;-66
2021/11/02 15:56:45;;;;;;;12.02;6.75;;;12.60;99.90;;;;;;5066200;28;20156;-65
2021/11/02 15:59:11;;;;;;;7.70;5.22;;;12.60;99.90;;;;;;5065350;28;20172;-66
2021/11/02 16:01:47;;;;;;;7.75;5.38;;;12.50;99.90;;;;;;5065774;28;20160;-66
2021/11/02 16:04:25;;;;;;;7.10;5.63;;;12.50;99.90;;;;;;5064545;28;20168;-66
2021/11/02 16:07:03;;;;;;;9.90;5.82;;;12.60;99.90;;;;;;5066046;28;20221;-66
2021/11/02 16:09:55;;;;;;;10.55;6.28;;;12.50;99.90;;;;;;5065617;28;20251;-66
2021/11/02 16:12:35;;;;;;;11.65;6.30;;;12.70;99.90;;;;;;5065635;28;20219;-66
2021/11/02 16:15:18;;;;;;;7.57;6.22;;;12.70;99.90;;;;;;5065678;28;20196;-66
2021/11/02 16:17:45;;;;;;;11.07;6.35;;;12.70;99.90;;;;;;5064399;28;20183;-66
2021/11/02 16:20:27;;;;;;;9.98;7.15;;;12.60;99.90;;;;;;5065484;28;20240;-66
2021/11/02 16:23:04;;;;;;;7.70;6.50;;;12.70;99.90;;;;;;5065876;28;20156;-66
2021/11/02 16:25:32;;;;;;;8.30;7.00;;;12.90;99.90;;;;;;5065861;28;20191;-66
2021/11/02 16:28:07;;;;;;;14.15;8.02;;;13.00;99.90;;;;;;5065697;28;20240;-66
2021/11/02 16:30:45;;;;;;;10.80;8.25;;;12.90;99.90;;;;;;5069533;28;20235;-66
2021/11/02 16:33:11;;;;;;;15.65;8.32;;;12.80;99.90;;;;;;5069727;28;20240;-66
2021/11/02 16:35:45;;;;;;;10.45;7.93;;;12.90;99.90;;;;;;5069517;28;20187;-66
2021/11/02 16:38:26;;;;;;;11.15;8.35;;;12.80;99.90;;;;;;5069632;28;20177;-66
2021/11/02 16:41:21;;;;;;;9.73;7.57;;;12.40;99.90;;;;;;5069220;28;20160;-66
2021/11/02 16:43:55;;;;;;;8.07;7.18;;;12.20;99.90;;;;;;5068356;28;20240;-66
2021/11/02 16:46:33;;;;;;;11.68;8.27;;;12.30;99.90;;;;;;5069785;28;20148;-66
2021/11/02 16:49:14;;;;;;;14.05;8.70;;;12.50;99.90;;;;;;5069352;28;20171;-66
2021/11/02 16:51:55;;;;;;;12.35;9.25;;;12.50;99.90;;;;;;5069488;28;20222;-66
2021/11/02 16:54:21;;;;;;;14.45;8.65;;;12.40;99.90;;;;;;5069290;28;20160;-66
2021/11/02 16:57:18;;;;;;;13.52;9.30;;;12.20;99.90;;;;;;5069254;28;20173;-66
2021/11/02 17:00:10;;;;;;;19.07;10.77;;;12.30;99.90;;;;;;5068340;28;20165;-65
2021/11/02 17:02:39;;;;;;;21.40;10.55;;;12.20;99.90;;;;;;5069422;28;20153;-66
2021/11/02 17:05:05;;;;;;;21.48;11.77;;;11.90;99.90;;;;;;5067705;28;20502;-68
2021/11/02 17:07:41;;;;;;;12.90;9.95;;;11.80;99.90;;;;;;5069095;28;20169;-66
2021/11/02 17:10:27;;;;;;;15.43;10.80;;;11.80;99.90;;;;;;5068162;28;20175;-66
2021/11/02 17:12:55;;;;;;;15.50;10.32;;;11.60;99.90;;;;;;5067401;28;20302;-66
2021/11/02 17:15:31;;;;;;;14.27;10.03;;;11.70;99.90;;;;;;5069208;28;20169;-66
2021/11/02 17:17:57;;;;;;;13.10;10.23;;;11.60;99.90;;;;;;5069065;28;20164;-67
2021/11/02 17:20:24;;;;;;;13.10;10.93;;;11.30;99.90;;;;;;5067540;28;20165;-67
2021/11/02 17:22:51;;;;;;;16.73;13.23;;;10.90;99.90;;;;;;5068383;28;20418;-67
2021/11/02 17:25:18;;;;;;;19.35;13.48;;;10.70;99.90;;;;;;5068798;28;20268;-67
2021/11/02 17:27:48;;;;;;;20.47;13.00;;;10.80;99.90;;;;;;5068942;28;20175;-67
2021/11/02 17:30:25;;;;;;;19.07;15.33;;;11.10;99.90;;;;;;5067989;28;20630;-66
2021/11/02 17:32:53;;;;;;;17.27;14.03;;;11.00;99.90;;;;;;5068371;28;20176;-66
2021/11/02 17:35:20;;;;;;;22.90;13.27;;;10.90;99.90;;;;;;5068716;28;20161;-67
2021/11/02 17:37:49;;;;;;;14.00;12.37;;;11.00;99.90;;;;;;5068627;28;20169;-67
2021/11/02 17:40:16;;;;;;;15.97;12.17;;;11.10;99.90;;;;;;5067462;28;20175;-67
2021/11/02 17:42:44;;;;;;;18.93;12.00;;;10.80;99.90;;;;;;5068671;28;20622;-67
2021/11/02 17:45:10;;;;;;;13.73;11.37;;;10.50;99.90;;;;;;5068180;28;20176;-67
2021/11/02 17:47:37;;;;;;;14.13;10.93;;;10.20;99.90;;;;;;5068585;28;20172;-67
2021/11/02 17:50:04;;;;;;;12.45;10.80;;;10.20;99.90;;;;;;5068289;28;20173;-66
2021/11/02 17:52:29;;;;;;;16.10;9.63;;;10.10;99.90;;;;;;5068452;28;20199;-67
2021/11/02 17:54:55;;;;;;;11.07;9.18;;;10.20;99.90;;;;;;5068159;28;20169;-67
2021/11/02 17:57:21;;;;;;;12.50;9.03;;;10.20;99.90;;;;;;5068242;28;20165;-67
2021/11/02 17:59:47;;;;;;;9.77;8.73;;;10.10;99.90;;;;;;5067807;28;20259;-67
2021/11/02 18:02:14;;;;;;;17.43;9.93;;;10.00;99.90;;;;;;5068356;28;20593;-67
2021/11/02 18:04:41;;;;;;;16.03;9.73;;;10.00;99.90;;;;;;5068221;28;20203;-66
2021/11/02 18:07:07;;;;;;;13.13;8.90;;;9.90;99.90;;;;;;5068284;28;20173;-67
2021/11/02 18:09:34;;;;;;;13.83;9.33;;;9.90;99.90;;;;;;5067828;28;20190;-66
2021/11/02 18:12:01;;;;;;;11.40;8.83;;;9.90;99.90;;;;;;5067650;28;20228;-67
2021/11/02 18:14:26;;;;;;;13.87;9.60;;;9.90;99.90;;;;;;5067437;28;20222;-66
2021/11/02 18:16:53;;;;;;;9.67;7.57;;;9.90;99.90;;;;;;5067788;28;20160;-67
2021/11/02 18:19:22;;;;;;;10.63;8.10;;;9.80;99.90;;;;;;5067520;28;20165;-66
2021/11/02 18:21:50;;;;;;;12.30;7.40;;;9.90;99.90;;;;;;5066519;28;20161;-63